createdAt,value
2018-07-19T00:01:36.237Z,97896.52
2018-07-19T00:04:05.679Z,97892.77
2018-07-19T00:06:34.941Z,97892.22
2018-07-19T00:09:06.020Z,97899.71
2018-07-19T00:11:35.318Z,97893.88
2018-07-19T00:14:04.333Z,97896.38
2018-07-19T00:16:33.585Z,97900.15
2018-07-19T00:19:02.871Z,97898.58
2018-07-19T00:21:32.118Z,97899.66
2018-07-19T00:24:01.393Z,97904.26
2018-07-19T00:26:30.678Z,97898.88
2018-07-19T00:28:59.954Z,97905.37
2018-07-19T00:31:29.318Z,97898.39
2018-07-19T00:33:58.713Z,97901.95
2018-07-19T00:36:28.061Z,97905.27
2018-07-19T00:38:57.446Z,97897.73
2018-07-19T00:41:26.745Z,97901.27
2018-07-19T00:43:56.046Z,97904.22
2018-07-19T00:46:25.349Z,97902.95
2018-07-19T00:48:54.622Z,97905.91
2018-07-19T00:51:23.873Z,97911.88
2018-07-19T00:53:53.166Z,97911.14
2018-07-19T00:56:22.471Z,97908.45
2018-07-19T00:58:51.775Z,97907.88
2018-07-19T01:01:21.110Z,97909.80
2018-07-19T01:03:50.451Z,97911.44
2018-07-19T01:06:19.838Z,97912.30
2018-07-19T01:08:49.138Z,97916.34
2018-07-19T01:11:18.404Z,97908.19
2018-07-19T01:13:47.673Z,97911.71
2018-07-19T01:16:16.981Z,97907.23
2018-07-19T01:18:46.259Z,97908.60
2018-07-19T01:21:15.516Z,97911.26
2018-07-19T01:23:44.770Z,97910.99
2018-07-19T01:26:14.051Z,97910.21
2018-07-19T01:28:43.315Z,97915.61
2018-07-19T01:31:12.687Z,97912.60
2018-07-19T01:33:41.960Z,97910.75
2018-07-19T01:36:11.456Z,97904.84
2018-07-19T01:38:40.870Z,97904.84
2018-07-19T01:41:27.242Z,97904.87
2018-07-19T01:43:56.513Z,97909.19
2018-07-19T01:46:25.789Z,97906.02
2018-07-19T01:48:55.093Z,97910.00
2018-07-19T01:51:24.410Z,97907.39
2018-07-19T01:53:53.752Z,97906.09
2018-07-19T01:56:23.096Z,97904.19
2018-07-19T01:58:52.401Z,97904.48
2018-07-19T02:01:21.691Z,97912.53
2018-07-19T02:03:50.950Z,97913.36
2018-07-19T02:06:20.213Z,97913.88
2018-07-19T02:08:49.467Z,97897.56
2018-07-19T02:11:18.738Z,97909.36
2018-07-19T02:13:47.741Z,97909.62
2018-07-19T02:16:17.326Z,97913.36
2018-07-19T02:18:46.643Z,97913.36
2018-07-19T02:21:16.048Z,97906.98
2018-07-19T02:23:45.402Z,97905.89
2018-07-19T02:26:14.710Z,97902.94
2018-07-19T02:28:43.956Z,97904.52
2018-07-19T02:31:13.226Z,97908.89
2018-07-19T02:33:42.477Z,97907.60
2018-07-19T02:36:11.766Z,97915.09
2018-07-19T02:38:41.038Z,97933.05
2018-07-19T02:41:10.409Z,97911.62
2018-07-19T02:43:39.687Z,97915.66
2018-07-19T02:46:09.069Z,97919.39
2018-07-19T02:48:38.473Z,97920.51
2018-07-19T02:51:07.825Z,97919.70
2018-07-19T02:53:37.426Z,97913.80
2018-07-19T02:56:06.706Z,97920.80
2018-07-19T02:58:35.982Z,97916.52
2018-07-19T03:01:05.307Z,97918.38
2018-07-19T03:03:34.590Z,97915.45
2018-07-19T03:06:04.094Z,97910.88
2018-07-19T03:08:33.369Z,97914.38
2018-07-19T03:11:02.669Z,97917.05
2018-07-19T03:13:32.036Z,97915.72
2018-07-19T03:16:01.308Z,97918.95
2018-07-19T03:18:30.547Z,97918.41
2018-07-19T03:20:59.843Z,97914.64
2018-07-19T03:23:29.172Z,97919.74
2018-07-19T03:25:58.564Z,97923.78
2018-07-19T03:28:27.633Z,97922.47
2018-07-19T03:30:56.908Z,97919.79
2018-07-19T03:33:26.182Z,97919.23
2018-07-19T03:35:55.444Z,97918.17
2018-07-19T03:38:24.737Z,97914.95
2018-07-19T03:40:54.126Z,97917.92
2018-07-19T03:43:23.524Z,97915.79
2018-07-19T03:45:52.770Z,97909.61
2018-07-19T03:48:22.185Z,97914.98
2018-07-19T03:50:51.626Z,97911.47
2018-07-19T03:53:20.953Z,97910.39
2018-07-19T03:55:50.264Z,97917.91
2018-07-19T03:58:19.778Z,97919.23
2018-07-19T04:00:49.034Z,97919.78
2018-07-19T04:03:18.318Z,97922.18
2018-07-19T04:05:47.557Z,97921.64
2018-07-19T04:08:16.959Z,97918.17
2018-07-19T04:10:46.221Z,97921.38
2018-07-19T04:13:15.493Z,97919.74
2018-07-19T04:15:44.759Z,97918.94
2018-07-19T04:18:14.060Z,97924.58
2018-07-19T04:20:43.363Z,97921.63
2018-07-19T04:23:12.664Z,97925.34
2018-07-19T04:25:42.052Z,97926.45
2018-07-19T04:28:11.340Z,97930.18
2018-07-19T04:30:40.641Z,97932.06
2018-07-19T04:33:09.930Z,97929.38
2018-07-19T04:35:39.235Z,97923.70
2018-07-19T04:38:08.543Z,97934.72
2018-07-19T04:40:37.774Z,97929.84
2018-07-19T04:43:13.890Z,97935.45
2018-07-19T04:45:43.238Z,97936.50
2018-07-19T04:48:12.810Z,97940.78
2018-07-19T04:50:42.057Z,97935.64
2018-07-19T04:53:11.337Z,97933.45
2018-07-19T04:55:40.613Z,97927.77
2018-07-19T04:58:09.702Z,97930.92
2018-07-19T05:00:39.031Z,97939.36
2018-07-19T05:03:08.338Z,97928.36
2018-07-19T05:05:37.624Z,97931.40
2018-07-19T05:08:06.961Z,97931.16
2018-07-19T05:10:36.266Z,97931.45
2018-07-19T05:13:05.642Z,97937.84
2018-07-19T05:15:35.764Z,97937.20
2018-07-19T05:18:05.074Z,97936.52
2018-07-19T05:20:34.441Z,97937.49
2018-07-19T05:23:03.836Z,97935.56
2018-07-19T05:25:33.118Z,97939.52
2018-07-19T05:28:02.391Z,97935.83
2018-07-19T05:30:31.754Z,97937.93
2018-07-19T05:33:01.346Z,97928.06
2018-07-19T05:35:31.074Z,97933.10
2018-07-19T05:38:00.098Z,97936.70
2018-07-19T05:40:29.341Z,97933.48
2018-07-19T05:42:58.561Z,97934.55
2018-07-19T05:45:27.884Z,97941.73
2018-07-19T05:47:57.224Z,97937.44
2018-07-19T05:50:26.592Z,97932.05
2018-07-19T05:53:02.183Z,97927.13
2018-07-19T05:55:31.717Z,97925.81
2018-07-19T05:58:01.018Z,97931.77
2018-07-19T06:00:30.347Z,97935.89
2018-07-19T06:02:59.623Z,97938.13
2018-07-19T06:05:28.921Z,97936.65
2018-07-19T06:07:58.333Z,97934.93
2018-07-19T06:10:27.683Z,97932.62
2018-07-19T06:12:57.037Z,97930.94
2018-07-19T06:15:26.341Z,97936.12
2018-07-19T06:17:55.631Z,97937.42
2018-07-19T06:23:00.336Z,97946.19
2018-07-19T06:25:30.533Z,97932.95
2018-07-19T06:27:59.822Z,97937.12
2018-07-19T06:30:29.194Z,97936.70
2018-07-19T06:32:58.504Z,97939.53
2018-07-19T06:35:27.898Z,97938.91
2018-07-19T06:37:57.316Z,97937.70
2018-07-19T06:40:26.666Z,97941.89
2018-07-19T06:42:56.039Z,97944.39
2018-07-19T06:45:25.379Z,97947.57
2018-07-19T06:47:54.666Z,97942.14
2018-07-19T06:50:23.966Z,97949.69
2018-07-19T06:52:53.376Z,97962.98
2018-07-19T06:55:22.658Z,97947.66
2018-07-19T06:57:51.983Z,97942.78
2018-07-19T07:00:21.296Z,97936.86
2018-07-19T07:02:50.718Z,97938.71
2018-07-19T07:05:20.111Z,97936.64
2018-07-19T07:07:49.575Z,97938.90
2018-07-19T07:10:19.235Z,97935.91
2018-07-19T07:12:48.628Z,97939.57
2018-07-19T07:15:18.034Z,97939.23
2018-07-19T07:17:47.362Z,97944.24
2018-07-19T07:20:16.733Z,97941.83
2018-07-19T07:22:46.051Z,97950.34
2018-07-19T07:25:15.301Z,97946.74
2018-07-19T07:27:44.565Z,97943.48
2018-07-19T07:30:13.839Z,97949.95
2018-07-19T07:32:43.139Z,97947.27
2018-07-19T07:35:12.437Z,97948.53
2018-07-19T07:37:41.793Z,97935.85
2018-07-19T07:40:11.142Z,97945.48
2018-07-19T07:42:40.592Z,97951.14
2018-07-19T07:45:09.957Z,97945.88
2018-07-19T07:47:39.334Z,97942.05
2018-07-19T07:50:08.674Z,97956.05
2018-07-19T07:52:38.052Z,97950.55
2018-07-19T07:55:07.355Z,97947.98
2018-07-19T07:57:36.738Z,97952.18
2018-07-19T08:00:06.410Z,97950.03
2018-07-19T08:02:35.467Z,97951.52
2018-07-19T08:05:04.739Z,97950.84
2018-07-19T08:07:34.022Z,97948.62
2018-07-19T08:10:03.315Z,97946.81
2018-07-19T08:12:32.634Z,97942.63
2018-07-19T08:15:02.096Z,97946.77
2018-07-19T08:17:31.523Z,97944.55
2018-07-19T08:20:00.898Z,97948.00
2018-07-19T08:22:30.237Z,97938.73
2018-07-19T08:24:59.555Z,97944.34
2018-07-19T08:27:28.842Z,97948.07
2018-07-19T08:29:58.127Z,97942.19
2018-07-19T08:32:27.471Z,97941.13
2018-07-19T08:34:56.855Z,97946.23
2018-07-19T08:37:26.182Z,97944.56
2018-07-19T08:39:55.608Z,97944.31
2018-07-19T08:42:24.930Z,97940.77
2018-07-19T08:44:54.770Z,97949.75
2018-07-19T08:47:24.074Z,97945.83
2018-07-19T08:49:53.097Z,97943.27
2018-07-19T08:52:22.616Z,97942.42
2018-07-19T08:54:52.007Z,97934.77
2018-07-19T08:57:21.459Z,97933.27
2018-07-19T08:59:50.746Z,97929.55
2018-07-19T09:02:20.087Z,97930.85
2018-07-19T09:04:49.364Z,97938.47
2018-07-19T09:07:18.625Z,97934.63
2018-07-19T09:09:47.922Z,97932.48
2018-07-19T09:12:17.177Z,97929.45
2018-07-19T09:14:46.539Z,97925.39
2018-07-19T09:17:15.860Z,97928.22
2018-07-19T09:19:45.215Z,97928.69
2018-07-19T09:22:14.293Z,97921.73
2018-07-19T09:24:43.666Z,97920.04
2018-07-19T09:27:12.768Z,97926.75
2018-07-19T09:29:42.071Z,97921.03
2018-07-19T09:32:11.540Z,97920.36
2018-07-19T09:34:40.953Z,97919.31
2018-07-19T09:37:10.263Z,97924.70
2018-07-19T09:39:39.547Z,97916.09
2018-07-19T09:42:08.968Z,97920.48
2018-07-19T09:44:38.199Z,97923.19
2018-07-19T09:47:07.478Z,97923.59
2018-07-19T09:49:36.746Z,97924.30
2018-07-19T09:52:05.962Z,97923.13
2018-07-19T09:54:54.116Z,97921.99
2018-07-19T09:57:23.503Z,97923.22
2018-07-19T09:59:52.823Z,97926.80
2018-07-19T10:02:22.083Z,97935.73
2018-07-19T10:04:51.307Z,97925.70
2018-07-19T10:07:20.853Z,97922.97
2018-07-19T10:09:50.196Z,97925.83
2018-07-19T10:12:19.707Z,97923.58
2018-07-19T10:14:49.735Z,97927.77
2018-07-19T10:17:19.066Z,97925.30
2018-07-19T10:19:48.388Z,97925.07
2018-07-19T10:22:17.659Z,97928.47
2018-07-19T10:24:47.062Z,97924.10
2018-07-19T10:27:16.349Z,97923.78
2018-07-19T10:29:45.711Z,97920.73
2018-07-19T10:32:15.189Z,97921.30
2018-07-19T10:34:44.344Z,97921.14
2018-07-19T10:37:13.677Z,97920.92
2018-07-19T10:39:42.946Z,97920.00
2018-07-19T10:42:12.002Z,97922.41
2018-07-19T10:44:41.323Z,97911.30
2018-07-19T10:47:12.473Z,97914.63
2018-07-19T10:49:53.593Z,97913.39
2018-07-19T10:52:24.190Z,97910.20
2018-07-19T10:54:54.765Z,97920.16
2018-07-19T10:57:25.188Z,97899.30
2018-07-19T10:59:55.985Z,97910.95
2018-07-19T11:02:26.226Z,97914.56
2018-07-19T11:04:56.398Z,97918.59
2018-07-19T11:07:26.948Z,97904.84
2018-07-19T11:09:59.029Z,97906.30
2018-07-19T11:12:30.545Z,97899.96
2018-07-19T11:15:01.265Z,97895.75
2018-07-19T11:17:31.437Z,97882.87
2018-07-19T11:20:03.046Z,97891.63
2018-07-19T11:22:33.091Z,97898.95
2018-07-19T11:25:02.970Z,97896.34
2018-07-19T11:27:34.184Z,97901.36
2018-07-19T11:30:05.391Z,97881.13
2018-07-19T11:32:35.608Z,97886.55
2018-07-19T11:35:06.535Z,97890.12
2018-07-19T11:37:36.513Z,97882.27
2018-07-19T11:40:06.416Z,97876.05
2018-07-19T11:42:37.166Z,97870.83
2018-07-19T11:45:08.469Z,97862.98
2018-07-19T11:47:41.847Z,97864.42
2018-07-19T11:50:13.527Z,97867.72
2018-07-19T11:52:44.024Z,97863.83
2018-07-19T11:55:14.070Z,97862.09
2018-07-19T11:57:45.438Z,97855.50
2018-07-19T12:00:16.151Z,97855.45
2018-07-19T12:02:47.407Z,97854.14
2018-07-19T12:05:17.498Z,97845.20
2018-07-19T12:07:48.807Z,97849.87
2018-07-19T12:10:18.890Z,97842.94
2018-07-19T12:12:49.146Z,97828.86
2018-07-19T12:15:19.207Z,97825.89
2018-07-19T12:17:50.114Z,97827.73
2018-07-19T12:20:20.652Z,97842.16
2018-07-19T12:22:51.678Z,97838.48
2018-07-19T12:25:21.013Z,97825.80
2018-07-19T12:27:50.282Z,97832.72
2018-07-19T12:30:19.605Z,97835.51
2018-07-19T12:32:49.090Z,97828.75
2018-07-19T12:35:18.378Z,97829.78
2018-07-19T12:37:47.692Z,97824.01
2018-07-19T12:40:17.031Z,97817.80
2018-07-19T12:42:46.298Z,97822.30
2018-07-19T12:45:15.675Z,97812.13
2018-07-19T12:47:44.962Z,97814.25
2018-07-19T12:50:14.220Z,97806.15
2018-07-19T12:52:43.603Z,97811.42
2018-07-19T12:55:12.890Z,97809.92
2018-07-19T12:57:42.154Z,97806.39
2018-07-19T13:00:11.540Z,97800.52
2018-07-19T13:02:40.787Z,97803.58
2018-07-19T13:05:10.082Z,97795.22
2018-07-19T13:07:39.426Z,97794.45
2018-07-19T13:10:08.821Z,97794.62
2018-07-19T13:12:38.122Z,97809.55
2018-07-19T13:15:08.141Z,97794.94
2018-07-19T13:17:37.415Z,97797.84
2018-07-19T13:20:06.811Z,97801.11
2018-07-19T13:22:36.131Z,97791.93
2018-07-19T13:25:05.804Z,97794.05
2018-07-19T13:27:35.081Z,97793.28
2018-07-19T13:30:04.984Z,97790.27
2018-07-19T13:32:34.311Z,97790.87
2018-07-19T13:35:03.628Z,97790.97
2018-07-19T13:37:32.934Z,97789.56
2018-07-19T13:40:02.229Z,97783.95
2018-07-19T13:42:31.542Z,97781.30
2018-07-19T13:45:00.861Z,97786.70
2018-07-19T13:47:30.177Z,97776.41
2018-07-19T13:49:59.430Z,97791.27
2018-07-19T13:52:45.710Z,97789.16
2018-07-19T13:55:14.962Z,97784.84
2018-07-19T13:57:44.352Z,97782.91
2018-07-19T14:00:13.667Z,97771.72
2018-07-19T14:02:42.983Z,97770.84
2018-07-19T14:05:12.248Z,97768.84
2018-07-19T14:07:41.532Z,97768.72
2018-07-19T14:10:10.901Z,97763.52
2018-07-19T14:12:40.260Z,97764.61
2018-07-19T14:15:09.578Z,97762.84
2018-07-19T14:17:38.881Z,97761.45
2018-07-19T14:20:08.227Z,97751.72
2018-07-19T14:22:37.490Z,97753.02
2018-07-19T14:25:06.878Z,97753.11
2018-07-19T14:27:36.250Z,97755.88
2018-07-19T14:30:06.706Z,97751.61
2018-07-19T14:32:36.005Z,97755.08
2018-07-19T14:35:05.482Z,97752.63
2018-07-19T14:37:34.770Z,97744.91
2018-07-19T14:40:04.062Z,97742.65
2018-07-19T14:42:33.305Z,97741.52
2018-07-19T14:45:02.636Z,97738.55
2018-07-19T14:47:31.930Z,97743.91
2018-07-19T14:50:01.309Z,97736.80
2018-07-19T14:52:30.678Z,97736.58
2018-07-19T14:54:59.996Z,97741.30
2018-07-19T14:57:29.262Z,97739.96
2018-07-19T14:59:58.707Z,97733.88
2018-07-19T15:02:27.955Z,97733.89
2018-07-19T15:04:57.261Z,97736.33
2018-07-19T15:07:27.583Z,97729.64
2018-07-19T15:09:56.846Z,97727.59
2018-07-19T15:12:26.163Z,97725.64
2018-07-19T15:14:55.750Z,97726.45
2018-07-19T15:17:25.045Z,97719.97
2018-07-19T15:19:54.390Z,97720.48
2018-07-19T15:22:23.662Z,97716.33
2018-07-19T15:24:53.055Z,97719.50
2018-07-19T15:27:22.494Z,97716.17
2018-07-19T15:29:51.856Z,97715.63
2018-07-19T15:32:21.210Z,97709.72
2018-07-19T15:34:50.604Z,97705.53
2018-07-19T15:37:19.897Z,97705.02
2018-07-19T15:39:49.498Z,97696.61
2018-07-19T15:42:18.809Z,97706.47
2018-07-19T15:44:48.109Z,97704.70
2018-07-19T15:47:17.423Z,97703.28
2018-07-19T15:49:46.674Z,97696.28
2018-07-19T15:52:15.981Z,97700.70
2018-07-19T15:54:45.248Z,97693.67
2018-07-19T15:57:14.853Z,97697.04
2018-07-19T15:59:44.172Z,97693.44
2018-07-19T16:02:13.332Z,97692.77
2018-07-19T16:04:42.706Z,97689.36
2018-07-19T16:07:12.143Z,97688.63
2018-07-19T16:09:41.492Z,97686.25
2018-07-19T16:12:10.778Z,97682.20
2018-07-19T16:14:40.057Z,97685.21
2018-07-19T16:17:09.421Z,97662.53
2018-07-19T16:19:38.738Z,97677.90
2018-07-19T16:22:08.060Z,97680.84
2018-07-19T16:24:37.385Z,97677.92
2018-07-19T16:27:06.713Z,97679.23
2018-07-19T16:29:36.082Z,97683.41
2018-07-19T16:32:05.384Z,97679.66
2018-07-19T16:34:34.746Z,97677.28
2018-07-19T16:37:03.978Z,97675.19
2018-07-19T16:39:33.106Z,97672.92
2018-07-19T16:42:02.197Z,97685.24
2018-07-19T16:44:31.587Z,97676.28
2018-07-19T16:47:00.834Z,97678.92
2018-07-19T16:49:30.135Z,97667.28
2018-07-19T16:51:59.430Z,97673.62
2018-07-19T16:54:28.743Z,97668.11
2018-07-19T16:56:58.383Z,97665.98
2018-07-19T16:59:27.731Z,97670.08
2018-07-19T17:01:57.059Z,97666.45
2018-07-19T17:04:26.389Z,97667.73
2018-07-19T17:06:55.725Z,97669.75
2018-07-19T17:09:25.086Z,97658.91
2018-07-19T17:11:54.457Z,97657.76
2018-07-19T17:14:23.715Z,97659.20
2018-07-19T17:16:53.021Z,97660.28
2018-07-19T17:19:22.310Z,97658.67
2018-07-19T17:21:51.655Z,97664.18
2018-07-19T17:24:21.050Z,97660.18
2018-07-19T17:26:50.082Z,97662.10
2018-07-19T17:29:19.406Z,97662.78
2018-07-19T17:31:48.698Z,97664.84
2018-07-19T17:34:18.066Z,97666.28
2018-07-19T17:36:47.324Z,97665.86
2018-07-19T17:39:16.723Z,97671.30
2018-07-19T17:41:46.043Z,97673.48
2018-07-19T17:44:15.308Z,97674.63
2018-07-19T17:46:44.568Z,97679.27
2018-07-19T17:49:13.853Z,97671.69
2018-07-19T17:54:11.186Z,97668.98
2018-07-19T17:56:40.507Z,97668.28
2018-07-19T17:59:09.815Z,97665.64
2018-07-19T18:01:39.134Z,97671.83
2018-07-19T18:04:08.415Z,97668.56
2018-07-19T18:06:37.825Z,97671.99
2018-07-19T18:09:09.250Z,97670.00
2018-07-19T18:11:38.598Z,97674.09
2018-07-19T18:14:08.154Z,97672.44
2018-07-19T18:16:37.497Z,97670.03
2018-07-19T18:19:07.097Z,97666.88
2018-07-19T18:21:36.454Z,97666.60
2018-07-19T18:24:05.847Z,97670.23
2018-07-19T18:26:35.232Z,97668.45
2018-07-19T18:29:04.310Z,97671.20
2018-07-19T18:31:33.630Z,97668.62
2018-07-19T18:34:02.806Z,97681.80
2018-07-19T18:36:32.087Z,97671.22
2018-07-19T18:39:02.194Z,97675.70
2018-07-19T18:41:31.319Z,97674.85
2018-07-19T18:44:00.727Z,97676.37
2018-07-19T18:46:29.977Z,97679.46
2018-07-19T18:49:00.023Z,97671.42
2018-07-19T18:51:29.533Z,97675.25
2018-07-19T18:53:59.082Z,97677.31
2018-07-19T18:56:28.556Z,97674.05
2018-07-19T18:58:57.911Z,97673.40
2018-07-19T19:01:27.294Z,97675.55
2018-07-19T19:03:56.737Z,97683.29
2018-07-19T19:06:26.254Z,97683.75
2018-07-19T19:08:55.582Z,97679.28
2018-07-19T19:11:25.042Z,97682.01
2018-07-19T19:13:54.378Z,97690.70
2018-07-19T19:16:24.152Z,97690.25
2018-07-19T19:18:53.747Z,97698.17
2018-07-19T19:21:23.062Z,97716.19
2018-07-19T19:23:52.399Z,97698.19
2018-07-19T19:26:21.495Z,97700.05
2018-07-19T19:28:50.800Z,97706.86
2018-07-19T19:31:20.107Z,97700.92
2018-07-19T19:33:49.462Z,97726.77
2018-07-19T19:36:18.929Z,97711.09
2018-07-19T19:38:48.404Z,97712.59
2018-07-19T19:41:17.740Z,97710.03
2018-07-19T19:43:47.016Z,97714.83
2018-07-19T19:46:16.359Z,97713.61
2018-07-19T19:48:45.840Z,97717.92
2018-07-19T19:51:15.155Z,97716.73
2018-07-19T19:53:44.483Z,97718.12
2018-07-19T19:56:13.820Z,97715.89
2018-07-19T19:58:43.186Z,97717.22
2018-07-19T20:01:12.386Z,97718.19
2018-07-19T20:03:41.758Z,97725.06
2018-07-19T20:06:11.144Z,97727.13
2018-07-19T20:08:40.206Z,97732.80
2018-07-19T20:11:09.597Z,97729.86
2018-07-19T20:13:38.994Z,97732.66
2018-07-19T20:16:08.360Z,97732.16
2018-07-19T20:18:37.749Z,97735.13
2018-07-19T20:21:07.231Z,97736.07
2018-07-19T20:23:36.484Z,97733.61
2018-07-19T20:26:05.722Z,97730.91
2018-07-19T20:28:35.048Z,97729.55
2018-07-19T20:31:04.290Z,97725.88
2018-07-19T20:33:33.600Z,97723.64
2018-07-19T20:36:02.890Z,97730.23
2018-07-19T20:38:32.301Z,97726.11
2018-07-19T20:41:01.588Z,97730.41
2018-07-19T20:43:30.921Z,97728.41
2018-07-19T20:46:00.242Z,97725.61
2018-07-19T20:48:29.534Z,97723.47
2018-07-19T20:50:58.834Z,97725.52
2018-07-19T20:53:28.258Z,97721.96
2018-07-19T20:55:57.658Z,97722.82
2018-07-19T20:58:26.989Z,97721.61
2018-07-19T21:00:56.340Z,97714.37
2018-07-19T21:03:25.630Z,97720.25
2018-07-19T21:05:54.917Z,97721.58
2018-07-19T21:08:24.176Z,97719.83
2018-07-19T21:10:53.569Z,97722.72
2018-07-19T21:13:22.911Z,97721.23
2018-07-19T21:15:52.214Z,97719.69
2018-07-19T21:18:21.561Z,97725.40
2018-07-19T21:20:50.913Z,97725.81
2018-07-19T21:23:20.180Z,97728.58
2018-07-19T21:25:49.478Z,97735.75
2018-07-19T21:28:18.746Z,97732.97
2018-07-19T21:30:48.074Z,97732.30
2018-07-19T21:33:17.361Z,97734.17
2018-07-19T21:35:46.608Z,97724.11
2018-07-19T21:38:15.895Z,97728.09
2018-07-19T21:40:45.200Z,97728.55
2018-07-19T21:43:14.607Z,97736.20
2018-07-19T21:45:43.876Z,97737.55
2018-07-19T21:48:13.122Z,97739.75
2018-07-19T21:50:42.401Z,97738.91
2018-07-19T21:53:11.742Z,97740.30
2018-07-19T21:55:41.069Z,97741.86
2018-07-19T21:58:10.326Z,97738.91
2018-07-19T22:00:44.956Z,97744.81
2018-07-19T22:03:14.311Z,97744.22
2018-07-19T22:05:43.614Z,97750.83
2018-07-19T22:08:12.847Z,97751.16
2018-07-19T22:10:42.176Z,97745.79
2018-07-19T22:13:11.410Z,97746.00
2018-07-19T22:15:40.654Z,97752.00
2018-07-19T22:18:09.906Z,97743.05
2018-07-19T22:20:39.165Z,97741.30
2018-07-19T22:23:08.507Z,97742.52
2018-07-19T22:25:37.818Z,97744.22
2018-07-19T22:28:07.103Z,97739.17
2018-07-19T22:30:36.468Z,97738.31
2018-07-19T22:33:05.800Z,97739.94
2018-07-19T22:35:35.446Z,97741.66
2018-07-19T22:38:05.025Z,97738.56
2018-07-19T22:40:34.386Z,97733.95
2018-07-19T22:43:03.645Z,97729.47
2018-07-19T22:45:32.963Z,97730.82
2018-07-19T22:48:02.237Z,97743.00
2018-07-19T22:50:31.509Z,97731.52
2018-07-19T22:53:00.800Z,97738.20
2018-07-19T22:55:30.077Z,97737.31
2018-07-19T22:57:59.335Z,97735.41
2018-07-19T23:00:28.577Z,97732.31
2018-07-19T23:02:57.942Z,97728.33
2018-07-19T23:05:27.234Z,97729.20
2018-07-19T23:07:56.563Z,97729.02
2018-07-19T23:10:25.880Z,97730.44
2018-07-19T23:12:55.114Z,97734.43
2018-07-19T23:15:24.364Z,97725.89
2018-07-19T23:17:53.634Z,97728.56
2018-07-19T23:20:22.878Z,97733.66
2018-07-19T23:22:55.748Z,97731.67
2018-07-19T23:25:25.333Z,97734.11
2018-07-19T23:27:55.298Z,97731.97
2018-07-19T23:30:27.033Z,97731.31
2018-07-19T23:32:56.294Z,97735.66
2018-07-19T23:35:29.584Z,97733.88
2018-07-19T23:38:00.638Z,97732.91
2018-07-19T23:40:32.591Z,97729.56
2018-07-19T23:43:11.818Z,97730.72
2018-07-19T23:46:01.880Z,97730.91
2018-07-19T23:48:31.196Z,97730.17
2018-07-19T23:51:00.442Z,97733.70
2018-07-19T23:53:29.658Z,97728.85
2018-07-19T23:55:58.970Z,97738.98
2018-07-19T23:58:28.453Z,97717.94
